Time;durP1;ratioP1;P1;durP2;ratioP2;P2;SDS_P1;SDS_P2;PMS_P1;PMS_P2;Temp;Humidity;BMP_temperature;BMP_pressure;BME280_temperature;BME280_humidity;BME280_pressure;Samples;Min_cycle;Max_cycle;Signal;HPM_P1;HPM_P2
2022/07/11 00:00:08;;;;;;;3.28;1.30;;;;;;;;;;5012133;28;20029;-52
2022/07/11 00:02:34;;;;;;;4.78;0.85;;;;;;;;;;5013267;28;20034;-52
2022/07/11 00:05:02;;;;;;;3.28;1.27;;;;;;;;;;5013428;28;20038;-54
2022/07/11 00:07:28;;;;;;;1.92;1.02;;;;;;;;;;5013108;28;20391;-55
2022/07/11 00:09:54;;;;;;;1.80;1.35;;;;;;;;;;5011773;28;20030;-53
2022/07/11 00:12:21;;;;;;;2.90;0.93;;;;;;;;;;5012236;28;20056;-52
2022/07/11 00:14:47;;;;;;;1.45;1.00;;;;;;;;;;5013013;28;20087;-52
2022/07/11 00:17:14;;;;;;;2.25;1.00;;;;;;;;;;5011503;28;20033;-52
2022/07/11 00:19:40;;;;;;;2.72;1.08;;;;;;;;;;5012813;28;20033;-52
2022/07/11 00:22:06;;;;;;;1.10;1.00;;;;;;;;;;5012902;28;20030;-54
2022/07/11 00:24:33;;;;;;;5.65;1.08;;;;;;;;;;5013240;28;20611;-52
2022/07/11 00:26:59;;;;;;;5.97;1.55;;;;;;;;;;5012790;28;20037;-53
2022/07/11 00:29:26;;;;;;;2.97;1.33;;;;;;;;;;5012512;28;20025;-52
2022/07/11 00:31:52;;;;;;;2.58;0.80;;;;;;;;;;5012923;28;20060;-53
2022/07/11 00:34:18;;;;;;;5.15;1.45;;;;;;;;;;5011566;28;20423;-52
2022/07/11 00:36:44;;;;;;;4.93;1.50;;;;;;;;;;5011937;28;20026;-52
2022/07/11 00:39:10;;;;;;;1.88;1.67;;;;;;;;;;5009160;28;20268;-52
2022/07/11 00:41:36;;;;;;;2.90;1.40;;;;;;;;;;5012576;28;20495;-52
2022/07/11 00:44:03;;;;;;;7.67;1.47;;;;;;;;;;5012553;28;20318;-52
2022/07/11 00:46:30;;;;;;;3.13;1.45;;;;;;;;;;5012495;28;20264;-53
2022/07/11 00:48:57;;;;;;;3.72;1.38;;;;;;;;;;5012094;28;20037;-52
2022/07/11 00:51:24;;;;;;;5.13;1.17;;;;;;;;;;5012091;28;20018;-54
2022/07/11 00:53:51;;;;;;;4.18;2.10;;;;;;;;;;5012466;28;20025;-53
2022/07/11 00:56:19;;;;;;;4.60;1.98;;;;;;;;;;5012352;28;20061;-52
2022/07/11 00:58:46;;;;;;;4.38;1.52;;;;;;;;;;5011440;28;20052;-51
2022/07/11 01:01:12;;;;;;;2.15;1.35;;;;;;;;;;5012315;28;20030;-52
2022/07/11 01:03:39;;;;;;;6.57;1.85;;;;;;;;;;5012373;28;20034;-52
2022/07/11 01:06:07;;;;;;;3.92;1.17;;;;;;;;;;5012178;28;20514;-52
2022/07/11 01:08:35;;;;;;;2.10;1.30;;;;;;;;;;5011980;28;20026;-52
2022/07/11 01:11:02;;;;;;;5.53;1.45;;;;;;;;;;5007611;28;20076;-52
2022/07/11 01:13:28;;;;;;;;;;;;;;;;;;5012558;28;20026;-53
2022/07/11 01:16:14;;;;;;;3.95;1.75;;;;;;;;;;5012103;28;20289;-51
2022/07/11 01:18:41;;;;;;;2.28;1.50;;;;;;;;;;5011956;28;20030;-52
2022/07/11 01:21:07;;;;;;;;;;;;;;;;;;5012192;28;20406;-53
2022/07/11 01:23:33;;;;;;;3.70;1.33;;;;;;;;;;5011514;28;20362;-52
2022/07/11 01:25:59;;;;;;;3.27;1.40;;;;;;;;;;5011821;28;20044;-52
2022/07/11 01:28:25;;;;;;;2.60;1.60;;;;;;;;;;5011670;28;20088;-52
2022/07/11 01:30:51;;;;;;;1.63;1.30;;;;;;;;;;5011342;28;20022;-52
2022/07/11 01:33:17;;;;;;;2.80;1.20;;;;;;;;;;5011966;28;20265;-52
2022/07/11 01:35:43;;;;;;;2.67;1.70;;;;;;;;;;5011537;28;20105;-52
2022/07/11 01:38:09;;;;;;;4.23;1.80;;;;;;;;;;5010617;28;20471;-52
2022/07/11 01:40:36;;;;;;;3.93;1.93;;;;;;;;;;5009673;28;20351;-52
2022/07/11 01:43:02;;;;;;;9.27;1.77;;;;;;;;;;5009714;28;20030;-52
2022/07/11 01:45:28;;;;;;;3.42;1.52;;;;;;;;;;5011219;28;20062;-52
2022/07/11 01:47:54;;;;;;;2.60;1.35;;;;;;;;;;5011703;28;20034;-55
2022/07/11 01:50:20;;;;;;;6.72;1.20;;;;;;;;;;5009830;28;20112;-52
2022/07/11 01:52:46;;;;;;;1.50;1.40;;;;;;;;;;5010984;28;20053;-52
2022/07/11 01:55:13;;;;;;;6.33;1.50;;;;;;;;;;5011854;28;20030;-52
2022/07/11 01:57:39;;;;;;;5.07;1.40;;;;;;;;;;5011608;28;20322;-53
2022/07/11 02:00:08;;;;;;;2.73;1.57;;;;;;;;;;5010987;28;20034;-52
2022/07/11 02:02:34;;;;;;;3.90;2.13;;;;;;;;;;5011150;28;20296;-52
2022/07/11 02:05:00;;;;;;;5.33;1.50;;;;;;;;;;5011757;28;20123;-52
2022/07/11 02:10:11;;;;;;;5.18;1.60;;;;;;;;;;5011359;28;20407;-52
2022/07/11 02:12:37;;;;;;;2.60;1.43;;;;;;;;;;5011636;28;20076;-53
2022/07/11 02:15:04;;;;;;;3.55;1.58;;;;;;;;;;5011358;28;20073;-51
2022/07/11 02:17:30;;;;;;;1.70;1.30;;;;;;;;;;5010780;28;20037;-53
2022/07/11 02:19:56;;;;;;;6.90;1.53;;;;;;;;;;5006460;28;20045;-52
2022/07/11 02:22:22;;;;;;;4.30;1.27;;;;;;;;;;5007551;28;20773;-52
2022/07/11 02:24:48;;;;;;;1.47;1.20;;;;;;;;;;5011246;28;20030;-52
2022/07/11 02:27:14;;;;;;;3.33;1.70;;;;;;;;;;5011319;28;20287;-52
2022/07/11 02:29:40;;;;;;;2.70;1.23;;;;;;;;;;5011031;28;20109;-52
2022/07/11 02:32:06;;;;;;;3.00;1.53;;;;;;;;;;5010374;28;20264;-51
2022/07/11 02:34:32;;;;;;;3.55;1.77;;;;;;;;;;5011113;28;20022;-52
2022/07/11 02:36:58;;;;;;;2.47;1.23;;;;;;;;;;5013320;28;20033;-52
2022/07/11 02:39:24;;;;;;;3.80;1.27;;;;;;;;;;5014468;28;20501;-52
2022/07/11 02:41:50;;;;;;;3.40;1.20;;;;;;;;;;5014387;28;20034;-53
2022/07/11 02:44:16;;;;;;;3.20;1.40;;;;;;;;;;5014533;28;20276;-52
2022/07/11 02:46:42;;;;;;;5.50;2.03;;;;;;;;;;5014632;28;20156;-52
2022/07/11 02:49:08;;;;;;;3.53;2.57;;;;;;;;;;5014303;28;20112;-52
2022/07/11 02:51:34;;;;;;;4.17;1.70;;;;;;;;;;5012713;28;20495;-52
2022/07/11 02:54:00;;;;;;;3.70;1.90;;;;;;;;;;5013090;28;20096;-52
2022/07/11 02:56:27;;;;;;;5.57;2.15;;;;;;;;;;5014195;28;20030;-52
2022/07/11 02:58:53;;;;;;;2.78;1.70;;;;;;;;;;5014341;28;20060;-52
2022/07/11 03:01:19;;;;;;;2.73;1.93;;;;;;;;;;5012814;28;20054;-52
2022/07/11 03:03:45;;;;;;;3.63;2.10;;;;;;;;;;5013355;28;20288;-53
2022/07/11 03:06:11;;;;;;;3.53;1.70;;;;;;;;;;5013898;28;20026;-52
2022/07/11 03:08:39;;;;;;;5.37;2.10;;;;;;;;;;5014497;28;20101;-52
2022/07/11 03:11:05;;;;;;;4.20;2.40;;;;;;;;;;5010289;28;20281;-53
2022/07/11 03:13:31;;;;;;;3.35;2.60;;;;;;;;;;5009848;28;20022;-52
2022/07/11 03:15:57;;;;;;;4.70;2.00;;;;;;;;;;5009941;28;20034;-54
2022/07/11 03:18:24;;;;;;;3.35;2.08;;;;;;;;;;5014021;28;20022;-52
2022/07/11 03:20:50;;;;;;;4.43;2.30;;;;;;;;;;5013930;28;20030;-52
2022/07/11 03:23:16;;;;;;;5.27;2.43;;;;;;;;;;5014144;28;20566;-52
2022/07/11 03:25:42;;;;;;;3.70;2.60;;;;;;;;;;5013508;28;20057;-52
2022/07/11 03:28:08;;;;;;;11.80;3.47;;;;;;;;;;5014178;28;20038;-53
2022/07/11 03:30:34;;;;;;;5.83;2.87;;;;;;;;;;5013495;28;20614;-52
2022/07/11 03:33:00;;;;;;;6.73;3.17;;;;;;;;;;5013579;28;20087;-52
2022/07/11 03:35:41;;;;;;;5.23;2.90;;;;;;;;;;5013887;28;20026;-53
2022/07/11 03:38:08;;;;;;;6.18;2.88;;;;;;;;;;5011513;28;20081;-52
2022/07/11 03:40:34;;;;;;;3.25;2.80;;;;;;;;;;5012146;28;20083;-52
2022/07/11 03:43:00;;;;;;;5.43;3.20;;;;;;;;;;5012853;28;20040;-52
2022/07/11 03:45:27;;;;;;;6.23;3.30;;;;;;;;;;5013534;28;20021;-53
2022/07/11 03:47:53;;;;;;;4.25;2.85;;;;;;;;;;5012359;28;20533;-54
2022/07/11 03:50:19;;;;;;;5.37;2.80;;;;;;;;;;5013220;28;20478;-53
2022/07/11 03:52:45;;;;;;;6.35;2.90;;;;;;;;;;5012813;28;20048;-53
2022/07/11 03:55:11;;;;;;;5.50;3.07;;;;;;;;;;5012928;28;20030;-52
2022/07/11 03:57:38;;;;;;;8.40;4.00;;;;;;;;;;5012794;28;20105;-51
2022/07/11 04:00:05;;;;;;;;;;;;;;;;;;5013893;28;20335;-52
2022/07/11 04:02:31;;;;;;;6.63;4.10;;;;;;;;;;5012744;28;19955;-52
2022/07/11 04:04:57;;;;;;;8.80;3.92;;;;;;;;;;5013175;28;20089;-54
2022/07/11 04:07:24;;;;;;;10.30;4.47;;;;;;;;;;5013377;28;20033;-53
2022/07/11 04:09:50;;;;;;;6.57;3.90;;;;;;;;;;5013169;28;20569;-53
2022/07/11 04:12:17;;;;;;;7.67;3.77;;;;;;;;;;5012862;28;20052;-53
2022/07/11 04:14:44;;;;;;;5.47;3.90;;;;;;;;;;5013551;28;20025;-53
2022/07/11 04:17:10;;;;;;;5.10;4.30;;;;;;;;;;5013037;28;20026;-53
2022/07/11 04:19:36;;;;;;;9.40;4.70;;;;;;;;;;5012991;28;20022;-52
2022/07/11 04:22:02;;;;;;;5.88;4.03;;;;;;;;;;5012962;28;20033;-52
2022/07/11 04:24:28;;;;;;;7.75;4.72;;;;;;;;;;5012971;28;20022;-59
2022/07/11 04:26:54;;;;;;;8.15;4.43;;;;;;;;;;5012861;28;20037;-58
2022/07/11 04:29:20;;;;;;;7.50;3.97;;;;;;;;;;5012899;28;20026;-57
2022/07/11 04:31:46;;;;;;;7.50;4.90;;;;;;;;;;5012970;28;20096;-57
2022/07/11 04:34:13;;;;;;;9.53;4.67;;;;;;;;;;5012742;28;20026;-56
2022/07/11 04:36:39;;;;;;;7.03;5.18;;;;;;;;;;5012900;28;20112;-55
2022/07/11 04:39:05;;;;;;;9.23;4.70;;;;;;;;;;5012569;28;20036;-56
2022/07/11 04:41:32;;;;;;;6.70;4.23;;;;;;;;;;5012861;28;20367;-57
2022/07/11 04:43:58;;;;;;;8.60;4.28;;;;;;;;;;5012791;28;20029;-57
2022/07/11 04:46:24;;;;;;;9.97;3.93;;;;;;;;;;5012312;28;20581;-57
2022/07/11 04:48:50;;;;;;;7.23;3.97;;;;;;;;;;5012553;28;20445;-57
2022/07/11 04:51:17;;;;;;;9.67;4.27;;;;;;;;;;5012390;28;20022;-54
2022/07/11 04:53:43;;;;;;;6.80;3.85;;;;;;;;;;5012724;28;20253;-56
2022/07/11 04:56:09;;;;;;;6.80;3.42;;;;;;;;;;5012319;28;20030;-56
2022/07/11 04:58:35;;;;;;;15.57;3.70;;;;;;;;;;5011754;28;20026;-57
2022/07/11 05:01:02;;;;;;;3.47;2.93;;;;;;;;;;5012152;28;20157;-57
2022/07/11 05:03:28;;;;;;;;;;;;;;;;;;5012810;28;20039;-56
2022/07/11 05:05:54;;;;;;;5.75;3.25;;;;;;;;;;5012192;28;19909;-56
2022/07/11 05:08:20;;;;;;;8.70;3.30;;;;;;;;;;5011960;28;20061;-55
2022/07/11 05:10:47;;;;;;;7.47;3.63;;;;;;;;;;5010894;28;20105;-55
2022/07/11 05:13:13;;;;;;;5.68;3.45;;;;;;;;;;5011777;28;20022;-55
2022/07/11 05:15:39;;;;;;;7.07;2.87;;;;;;;;;;5012241;28;20495;-54
2022/07/11 05:18:05;;;;;;;5.28;2.95;;;;;;;;;;5012158;28;20072;-56
2022/07/11 05:20:31;;;;;;;7.03;2.83;;;;;;;;;;5010728;28;20026;-55
2022/07/11 05:22:58;;;;;;;6.45;2.55;;;;;;;;;;5011751;28;20053;-55
2022/07/11 05:25:24;;;;;;;8.65;2.58;;;;;;;;;;5010640;28;20030;-57
2022/07/11 05:27:50;;;;;;;5.07;2.30;;;;;;;;;;5011982;28;20084;-57
2022/07/11 05:30:17;;;;;;;6.10;2.28;;;;;;;;;;5011648;28;20018;-56
2022/07/11 05:32:43;;;;;;;9.32;2.55;;;;;;;;;;5011586;28;20049;-57
2022/07/11 05:35:09;;;;;;;5.75;2.47;;;;;;;;;;5011919;28;20018;-55
2022/07/11 05:37:35;;;;;;;6.32;2.20;;;;;;;;;;5011728;28;20030;-55
2022/07/11 05:40:01;;;;;;;4.05;2.22;;;;;;;;;;5010508;28;20404;-57
2022/07/11 05:42:28;;;;;;;5.90;2.58;;;;;;;;;;5011195;28;20057;-58
2022/07/11 05:44:54;;;;;;;4.20;2.20;;;;;;;;;;5011763;28;20026;-55
2022/07/11 05:47:20;;;;;;;9.77;2.70;;;;;;;;;;5011477;28;20708;-57
2022/07/11 05:49:47;;;;;;;4.97;2.45;;;;;;;;;;5011414;28;20753;-55
2022/07/11 05:52:13;;;;;;;7.53;2.90;;;;;;;;;;5011557;28;20534;-55
2022/07/11 05:54:39;;;;;;;5.70;2.33;;;;;;;;;;5011708;28;20316;-55
2022/07/11 05:57:05;;;;;;;5.40;2.10;;;;;;;;;;5011565;28;20049;-58
2022/07/11 05:59:31;;;;;;;4.63;2.20;;;;;;;;;;5011258;28;20260;-56
2022/07/11 06:01:57;;;;;;;6.70;2.20;;;;;;;;;;5011311;28;20046;-58
2022/07/11 06:04:23;;;;;;;4.23;2.10;;;;;;;;;;5011754;28;20256;-58
2022/07/11 06:06:49;;;;;;;9.52;2.42;;;;;;;;;;5011105;28;20226;-54
2022/07/11 06:09:15;;;;;;;6.90;2.40;;;;;;;;;;5011496;28;20030;-57
2022/07/11 06:11:41;;;;;;;11.03;3.27;;;;;;;;;;5015229;28;20021;-55
2022/07/11 06:14:07;;;;;;;8.15;2.95;;;;;;;;;;5014808;28;20754;-55
2022/07/11 06:16:35;;;;;;;6.43;2.07;;;;;;;;;;5015428;28;20634;-57
2022/07/11 06:19:01;;;;;;;7.07;2.58;;;;;;;;;;5015049;28;20335;-55
2022/07/11 06:21:27;;;;;;;8.20;3.00;;;;;;;;;;5015119;28;20030;-57
2022/07/11 06:23:54;;;;;;;5.75;1.90;;;;;;;;;;5014971;28;20695;-55
2022/07/11 06:26:20;;;;;;;7.53;1.90;;;;;;;;;;5015445;28;20410;-54
2022/07/11 06:28:46;;;;;;;6.30;2.10;;;;;;;;;;5014808;28;20022;-55
2022/07/11 06:31:13;;;;;;;3.25;1.73;;;;;;;;;;5015225;28;20030;-54
2022/07/11 06:33:39;;;;;;;3.08;1.85;;;;;;;;;;5014978;28;20022;-61
2022/07/11 06:36:05;;;;;;;2.97;1.77;;;;;;;;;;5014926;28;20029;-62
2022/07/11 06:38:32;;;;;;;7.28;1.92;;;;;;;;;;5014959;28;20121;-60
2022/07/11 06:40:58;;;;;;;8.00;1.60;;;;;;;;;;5015291;28;20037;-60
2022/07/11 06:43:24;;;;;;;7.70;1.80;;;;;;;;;;5015041;28;20730;-60
2022/07/11 06:45:51;;;;;;;8.70;1.52;;;;;;;;;;5014812;28;20041;-60
2022/07/11 06:48:17;;;;;;;7.72;1.80;;;;;;;;;;5014640;28;20032;-60
2022/07/11 06:50:43;;;;;;;6.68;1.85;;;;;;;;;;5014789;28;20495;-61
2022/07/11 06:53:09;;;;;;;2.88;1.50;;;;;;;;;;5014538;28;20026;-59
2022/07/11 06:55:35;;;;;;;6.45;1.70;;;;;;;;;;5014690;28;20092;-59
2022/07/11 06:58:01;;;;;;;6.78;3.20;;;;;;;;;;5014750;28;20487;-59
2022/07/11 07:00:28;;;;;;;4.35;1.33;;;;;;;;;;5013007;28;20030;-60
2022/07/11 07:02:56;;;;;;;10.68;1.90;;;;;;;;;;5014208;28;20462;-60
2022/07/11 07:05:22;;;;;;;4.03;1.75;;;;;;;;;;5014120;28;20022;-59
2022/07/11 07:07:48;;;;;;;6.63;2.00;;;;;;;;;;5014231;28;20034;-59
2022/07/11 07:10:14;;;;;;;2.67;1.42;;;;;;;;;;5013167;28;20022;-60
2022/07/11 07:12:40;;;;;;;4.07;1.60;;;;;;;;;;5013011;28;20029;-60
2022/07/11 07:15:07;;;;;;;4.18;1.60;;;;;;;;;;5014552;28;20026;-60
2022/07/11 07:17:33;;;;;;;5.25;1.63;;;;;;;;;;5014225;28;20594;-60
2022/07/11 07:19:59;;;;;;;7.85;2.15;;;;;;;;;;5013972;28;20105;-59
2022/07/11 07:22:25;;;;;;;3.55;1.70;;;;;;;;;;5013357;28;20026;-60
2022/07/11 07:24:51;;;;;;;6.18;1.85;;;;;;;;;;5014305;28;20030;-59
2022/07/11 07:27:17;;;;;;;9.02;2.05;;;;;;;;;;5013879;28;20068;-61
2022/07/11 07:29:43;;;;;;;8.30;1.63;;;;;;;;;;5013768;28;20033;-61
2022/07/11 07:32:09;;;;;;;4.40;1.83;;;;;;;;;;5013816;28;20215;-62
2022/07/11 07:34:35;;;;;;;7.78;2.22;;;;;;;;;;5013697;28;20041;-62
2022/07/11 07:37:01;;;;;;;5.22;1.70;;;;;;;;;;5013845;28;20109;-63
2022/07/11 07:39:27;;;;;;;8.15;1.70;;;;;;;;;;5013855;28;20052;-62
2022/07/11 07:41:53;;;;;;;2.67;1.65;;;;;;;;;;5013535;28;20022;-60
2022/07/11 07:44:20;;;;;;;4.30;1.95;;;;;;;;;;5013870;28;20025;-62
2022/07/11 07:46:46;;;;;;;3.13;2.05;;;;;;;;;;5013583;28;20030;-59
2022/07/11 07:49:12;;;;;;;7.43;1.67;;;;;;;;;;5013460;28;20435;-62
2022/07/11 07:51:38;;;;;;;3.55;1.73;;;;;;;;;;5013841;28;20400;-62
2022/07/11 07:54:04;;;;;;;11.02;2.17;;;;;;;;;;5013538;28;20026;-62
2022/07/11 07:56:31;;;;;;;3.17;1.70;;;;;;;;;;5013588;28;20049;-62
2022/07/11 07:58:57;;;;;;;3.70;1.50;;;;;;;;;;5013313;28;20026;-63
2022/07/11 08:01:35;;;;;;;5.80;1.58;;;;;;;;;;5013209;28;20060;-62
2022/07/11 08:04:10;;;;;;;11.15;1.55;;;;;;;;;;5001701;28;20084;-62
2022/07/11 08:06:37;;;;;;;6.90;1.55;;;;;;;;;;5012885;28;20033;-61
2022/07/11 08:09:03;;;;;;;7.15;2.20;;;;;;;;;;5012882;28;20025;-62
2022/07/11 08:11:30;;;;;;;;;;;;;;;;;;5012284;28;20053;-62
2022/07/11 08:13:57;;;;;;;14.27;2.53;;;;;;;;;;5012986;28;19905;-62
2022/07/11 08:16:23;;;;;;;2.72;1.50;;;;;;;;;;5012972;28;20049;-61
2022/07/11 08:18:49;;;;;;;2.67;1.63;;;;;;;;;;5013024;28;20490;-62
2022/07/11 08:21:15;;;;;;;6.97;2.55;;;;;;;;;;5012647;28;20034;-62
2022/07/11 08:23:41;;;;;;;4.40;1.65;;;;;;;;;;5011851;28;20073;-61
2022/07/11 08:26:08;;;;;;;8.15;1.80;;;;;;;;;;5012762;28;20398;-62
2022/07/11 08:28:34;;;;;;;15.32;2.47;;;;;;;;;;5012809;28;20497;-61
2022/07/11 08:31:00;;;;;;;6.25;1.77;;;;;;;;;;5012321;28;20037;-61
2022/07/11 08:33:26;;;;;;;4.30;1.60;;;;;;;;;;5011731;28;20018;-62
2022/07/11 08:35:52;;;;;;;5.10;1.50;;;;;;;;;;5012542;28;20030;-62
2022/07/11 08:38:18;;;;;;;4.05;1.70;;;;;;;;;;5012723;28;20026;-62
2022/07/11 08:40:44;;;;;;;12.32;2.15;;;;;;;;;;5012352;28;20447;-62
2022/07/11 08:43:15;;;;;;;7.93;1.70;;;;;;;;;;5011196;28;20041;-62
2022/07/11 08:45:41;;;;;;;3.17;2.03;;;;;;;;;;5012571;28;20026;-61
2022/07/11 08:48:09;;;;;;;10.88;1.70;;;;;;;;;;5012280;28;20044;-61
2022/07/11 08:50:35;;;;;;;5.93;1.90;;;;;;;;;;5012363;28;20026;-62
2022/07/11 08:53:03;;;;;;;7.38;1.85;;;;;;;;;;5012361;28;20030;-62
2022/07/11 08:55:29;;;;;;;9.63;2.33;;;;;;;;;;5012463;28;20057;-63
2022/07/11 08:57:55;;;;;;;4.55;1.90;;;;;;;;;;5010945;28;20026;-61
2022/07/11 09:00:21;;;;;;;5.30;1.65;;;;;;;;;;5012026;28;20021;-63
2022/07/11 09:02:49;;;;;;;4.57;1.77;;;;;;;;;;5010926;28;20525;-61
2022/07/11 09:05:15;;;;;;;6.85;2.28;;;;;;;;;;5012096;28;20087;-61
2022/07/11 09:07:48;;;;;;;6.75;2.03;;;;;;;;;;5011977;28;20026;-57
2022/07/11 09:10:15;;;;;;;13.07;2.22;;;;;;;;;;5011831;28;20085;-55
2022/07/11 09:12:41;;;;;;;;;;;;;;;;;;5012153;28;20494;-61
2022/07/11 09:15:09;;;;;;;6.18;1.50;;;;;;;;;;5012357;28;19906;-59
2022/07/11 09:17:36;;;;;;;6.70;1.27;;;;;;;;;;5011908;28;20030;-57
2022/07/11 09:20:02;;;;;;;2.95;1.40;;;;;;;;;;5011705;28;20026;-61
2022/07/11 09:25:31;;;;;;;7.65;1.63;;;;;;;;;;5012271;28;20506;-63
2022/07/11 09:28:01;;;;;;;7.65;1.27;;;;;;;;;;5011794;28;20050;-60
2022/07/11 09:30:27;;;;;;;2.25;1.42;;;;;;;;;;5010667;28;20526;-60
2022/07/11 09:33:03;;;;;;;5.88;1.48;;;;;;;;;;5010386;28;20033;-60
2022/07/11 09:35:31;;;;;;;2.77;1.50;;;;;;;;;;5011610;28;20029;-64
2022/07/11 09:37:58;;;;;;;7.18;1.65;;;;;;;;;;5011975;28;20686;-63
2022/07/11 09:40:25;;;;;;;7.85;1.60;;;;;;;;;;5010245;28;20986;-64
2022/07/11 09:42:54;;;;;;;3.40;1.48;;;;;;;;;;5011792;28;20114;-64
2022/07/11 09:45:21;;;;;;;4.70;1.70;;;;;;;;;;5011590;28;20041;-64
2022/07/11 09:47:48;;;;;;;3.38;1.60;;;;;;;;;;5011450;28;20025;-63
2022/07/11 09:50:18;;;;;;;5.70;1.60;;;;;;;;;;5011625;28;20061;-63
2022/07/11 09:52:58;;;;;;;7.45;1.85;;;;;;;;;;5011579;28;20018;-64
2022/07/11 09:55:25;;;;;;;3.17;1.50;;;;;;;;;;5011316;28;20033;-63
2022/07/11 09:57:51;;;;;;;2.75;1.80;;;;;;;;;;5011693;28;20026;-64
2022/07/11 10:00:17;;;;;;;4.78;1.73;;;;;;;;;;5009980;28;20030;-64
2022/07/11 10:02:43;;;;;;;3.58;1.70;;;;;;;;;;5010227;28;20038;-64
2022/07/11 10:05:10;;;;;;;7.25;1.95;;;;;;;;;;5011536;28;20022;-63
2022/07/11 10:07:36;;;;;;;5.32;1.83;;;;;;;;;;5010905;28;20033;-63
2022/07/11 10:10:02;;;;;;;;;;;;;;;;;;5011737;28;20103;-65
2022/07/11 10:12:31;;;;;;;10.10;1.70;;;;;;;;;;5011093;28;21412;-64
2022/07/11 10:14:59;;;;;;;21.50;1.80;;;;;;;;;;5011471;28;20018;-64
2022/07/11 10:17:44;;;;;;;13.50;5.25;;;;;;;;;;5006679;28;20092;-61
2022/07/11 10:20:16;;;;;;;27.73;23.60;;;;;;;;;;5010120;28;20483;-64
2022/07/11 10:23:14;;;;;;;6.18;1.75;;;;;;;;;;5009987;28;20034;-54
2022/07/11 10:25:45;;;;;;;8.75;2.25;;;;;;;;;;4967011;28;20100;-54
2022/07/11 10:28:35;;;;;;;7.43;1.70;;;;;;;;;;5010379;28;20034;-54
2022/07/11 10:31:01;;;;;;;3.47;1.60;;;;;;;;;;4974738;28;20188;-53
2022/07/11 10:33:28;;;;;;;2.92;1.50;;;;;;;;;;5011163;28;20056;-54
2022/07/11 10:35:54;;;;;;;6.22;1.70;;;;;;;;;;5011382;28;20014;-54
2022/07/11 10:38:20;;;;;;;;;;;;;;;;;;5007077;28;20075;-54
2022/07/11 10:40:51;;;;;;;11.20;1.80;;;;;;;;;;5009302;28;19960;-56
2022/07/11 10:43:23;;;;;;;3.80;1.92;;;;;;;;;;5009007;28;20037;-55
2022/07/11 10:45:57;;;;;;;3.47;1.27;;;;;;;;;;5009674;28;20022;-56
2022/07/11 10:48:23;;;;;;;6.18;1.95;;;;;;;;;;5009867;28;20061;-56
2022/07/11 10:50:54;;;;;;;4.03;1.42;;;;;;;;;;5008560;28;20026;-54
2022/07/11 10:53:24;;;;;;;3.85;1.33;;;;;;;;;;5011115;28;20030;-57
2022/07/11 10:56:01;;;;;;;2.65;1.58;;;;;;;;;;5011033;28;20042;-54
2022/07/11 10:58:31;;;;;;;5.05;1.95;;;;;;;;;;5013637;28;20026;-53
2022/07/11 11:01:13;;;;;;;3.35;1.40;;;;;;;;;;5010113;28;20105;-53
2022/07/11 11:03:39;;;;;;;4.75;2.00;;;;;;;;;;5028833;22;20097;-56
2022/07/11 11:06:06;;;;;;;10.05;1.38;;;;;;;;;;4991736;28;20034;-55
2022/07/11 11:08:35;;;;;;;5.00;1.85;;;;;;;;;;4993266;28;20037;-58
2022/07/11 11:11:02;;;;;;;8.55;1.33;;;;;;;;;;4994652;28;20039;-57
2022/07/11 11:13:29;;;;;;;3.83;1.52;;;;;;;;;;4994964;28;20018;-57
2022/07/11 11:15:56;;;;;;;3.75;1.35;;;;;;;;;;4994441;28;20636;-57
2022/07/11 11:18:25;;;;;;;10.23;1.65;;;;;;;;;;4994932;28;20058;-58
2022/07/11 11:21:07;;;;;;;2.72;1.50;;;;;;;;;;4993948;28;20654;-58
2022/07/11 11:23:39;;;;;;;4.13;1.83;;;;;;;;;;4990057;28;20031;-56
2022/07/11 11:26:10;;;;;;;7.95;1.60;;;;;;;;;;4986182;28;20113;-58
2022/07/11 11:28:36;;;;;;;3.55;1.25;;;;;;;;;;4993941;28;20025;-58
2022/07/11 11:31:04;;;;;;;3.40;1.27;;;;;;;;;;4994403;28;20047;-57
2022/07/11 11:33:31;;;;;;;6.35;1.52;;;;;;;;;;4993952;28;20372;-58
2022/07/11 11:36:00;;;;;;;2.85;1.40;;;;;;;;;;4994234;28;20462;-58
2022/07/11 11:38:26;;;;;;;3.45;1.55;;;;;;;;;;4993455;28;20026;-55
2022/07/11 11:40:52;;;;;;;2.85;1.30;;;;;;;;;;4993560;28;20034;-57
2022/07/11 11:43:20;;;;;;;4.65;1.60;;;;;;;;;;4993909;28;20026;-58
2022/07/11 11:45:55;;;;;;;3.28;1.42;;;;;;;;;;4993547;28;20039;-58
2022/07/11 11:48:27;;;;;;;3.72;1.40;;;;;;;;;;4992291;28;20027;-59
2022/07/11 11:51:00;;;;;;;4.25;1.17;;;;;;;;;;4993466;28;20064;-56
2022/07/11 11:53:26;;;;;;;6.68;1.20;;;;;;;;;;4982592;28;20026;-58
2022/07/11 11:55:52;;;;;;;4.05;1.27;;;;;;;;;;4992116;28;20385;-57
2022/07/11 11:58:19;;;;;;;4.85;1.70;;;;;;;;;;5024951;28;20081;-58
2022/07/11 12:00:54;;;;;;;3.30;1.50;;;;;;;;;;4993001;28;20042;-59
2022/07/11 12:03:20;;;;;;;7.35;1.58;;;;;;;;;;4993328;28;20457;-58
2022/07/11 12:05:57;;;;;;;7.68;1.55;;;;;;;;;;4992969;28;20038;-58
2022/07/11 12:08:27;;;;;;;8.57;1.40;;;;;;;;;;5023427;28;20022;-58
2022/07/11 12:10:56;;;;;;;4.07;1.23;;;;;;;;;;4990773;28;20387;-56
2022/07/11 12:13:22;;;;;;;10.38;1.73;;;;;;;;;;4986338;28;20098;-57
2022/07/11 12:18:39;;;;;;;5.05;1.20;;;;;;;;;;4991400;28;20069;-58
2022/07/11 12:21:12;;;;;;;4.90;2.03;;;;;;;;;;5024591;28;20084;-55
2022/07/11 12:23:39;;;;;;;2.58;1.10;;;;;;;;;;4992151;28;20088;-58
2022/07/11 12:26:05;;;;;;;5.10;1.27;;;;;;;;;;4991981;28;20049;-59
2022/07/11 12:28:34;;;;;;;8.00;1.40;;;;;;;;;;4992709;28;20030;-59
2022/07/11 12:31:01;;;;;;;3.60;1.20;;;;;;;;;;4992153;28;20462;-59
2022/07/11 12:33:28;;;;;;;4.05;1.20;;;;;;;;;;4991330;28;21299;-58
2022/07/11 12:36:01;;;;;;;5.38;1.67;;;;;;;;;;4991763;28;20479;-56
2022/07/11 12:38:47;;;;;;;8.73;1.80;;;;;;;;;;5022006;28;20383;-54
2022/07/11 12:41:14;;;;;;;6.00;1.07;;;;;;;;;;4990891;28;20113;-57
2022/07/11 12:46:38;;;;;;;5.53;1.13;;;;;;;;;;4991228;28;20105;-58
2022/07/11 12:49:05;;;;;;;4.70;1.13;;;;;;;;;;4990667;28;20037;-58
2022/07/11 12:51:41;;;;;;;4.03;1.45;;;;;;;;;;4991893;28;20081;-57
2022/07/11 12:54:08;;;;;;;5.20;1.40;;;;;;;;;;4992607;28;20022;-59
2022/07/11 12:56:35;;;;;;;3.88;1.20;;;;;;;;;;4992961;28;20026;-58
2022/07/11 12:59:02;;;;;;;2.80;1.42;;;;;;;;;;5023939;28;20375;-58
2022/07/11 13:01:29;;;;;;;4.55;2.03;;;;;;;;;;4992519;28;20100;-55
2022/07/11 13:03:56;;;;;;;6.88;1.65;;;;;;;;;;4984115;28;20034;-58
2022/07/11 13:09:09;;;;;;;9.07;1.70;;;;;;;;;;4980954;28;20458;-57
2022/07/11 13:11:35;;;;;;;1.63;0.98;;;;;;;;;;4991602;28;20030;-58
2022/07/11 13:14:01;;;;;;;5.75;1.70;;;;;;;;;;4990738;28;20026;-58
2022/07/11 13:16:28;;;;;;;5.68;2.80;;;;;;;;;;5024019;28;20124;-56
2022/07/11 13:18:54;;;;;;;6.55;1.35;;;;;;;;;;4991832;28;20019;-57
2022/07/11 13:21:20;;;;;;;6.60;1.30;;;;;;;;;;4990962;28;20037;-57
2022/07/11 13:23:47;;;;;;;;;;;;;;;;;;4992964;28;20018;-59
2022/07/11 13:26:13;;;;;;;5.30;1.48;;;;;;;;;;4991423;28;19917;-56
2022/07/11 13:28:39;;;;;;;;;;;;;;;;;;4991853;28;20026;-55
2022/07/11 13:31:05;;;;;;;3.25;1.33;;;;;;;;;;4991736;28;20040;-57
2022/07/11 13:33:32;;;;;;;5.20;1.10;;;;;;;;;;4992116;28;20424;-58
2022/07/11 13:35:58;;;;;;;3.30;1.20;;;31.10;37.00;;;;;;4991575;28;20029;-58
2022/07/11 13:38:24;;;;;;;2.72;1.08;;;40.40;31.10;;;;;;4991373;28;20518;-57
2022/07/11 13:40:50;;;;;;;6.03;1.30;;;41.60;29.60;;;;;;4991214;28;20034;-57
2022/07/11 13:43:16;;;;;;;2.45;1.20;;;42.60;29.00;;;;;;4991851;28;20034;-58
2022/07/11 13:45:47;;;;;;;4.32;1.52;;;43.60;28.20;;;;;;4991795;28;20030;-58
2022/07/11 13:48:13;;;;;;;2.85;1.48;;;44.40;27.20;;;;;;4991623;28;20033;-57
2022/07/11 13:50:39;;;;;;;4.72;1.50;;;45.50;26.70;;;;;;4990739;28;20027;-56
2022/07/11 13:53:06;;;;;;;8.40;2.60;;;46.40;25.70;;;;;;4990828;28;20038;-57
2022/07/11 13:55:32;;;;;;;3.55;1.38;;;47.30;26.00;;;;;;4991329;28;20026;-56
2022/07/11 13:57:59;;;;;;;9.77;1.80;;;48.00;24.60;;;;;;4985431;28;20046;-58
2022/07/11 14:00:28;;;;;;;4.78;1.40;;;48.60;24.70;;;;;;4991393;28;20030;-55
2022/07/11 14:02:54;;;;;;;7.68;1.52;;;49.10;24.30;;;;;;4991175;28;20529;-57
2022/07/11 14:05:20;;;;;;;2.25;1.50;;;49.30;24.50;;;;;;4990805;28;20054;-58
2022/07/11 14:07:47;;;;;;;2.97;1.52;;;49.60;24.90;;;;;;4990946;28;20034;-58
2022/07/11 14:10:13;;;;;;;4.07;1.58;;;50.10;23.90;;;;;;4991239;28;20022;-57
2022/07/11 14:12:39;;;;;;;2.40;1.65;;;50.40;23.90;;;;;;4991484;28;20399;-56
2022/07/11 14:15:07;;;;;;;2.15;1.45;;;50.70;24.10;;;;;;4992049;28;20034;-56
2022/07/11 14:17:34;;;;;;;2.17;1.08;;;50.80;23.90;;;;;;4991096;28;20109;-57
2022/07/11 14:20:05;;;;;;;2.42;1.15;;;50.60;24.10;;;;;;4991345;28;20499;-57
2022/07/11 14:22:31;;;;;;;5.22;1.38;;;50.50;24.10;;;;;;4991188;28;20030;-56
2022/07/11 14:24:56;;;;;;;41.80;4.18;;;50.60;23.90;;;;;;4991885;28;20026;-56
2022/07/11 14:27:23;;;;;;;4.30;1.42;;;50.90;24.40;;;;;;4990584;28;20042;-57
2022/07/11 14:29:48;;;;;;;6.55;1.40;;;51.30;24.20;;;;;;4990260;28;20031;-56
2022/07/11 14:32:14;;;;;;;3.97;1.30;;;51.80;23.90;;;;;;4992511;28;20033;-58
2022/07/11 14:34:40;;;;;;;4.10;1.58;;;52.20;23.70;;;;;;4995520;28;20085;-58
2022/07/11 14:37:06;;;;;;;3.03;1.20;;;52.30;23.00;;;;;;4995456;28;20022;-58
2022/07/11 14:39:33;;;;;;;7.13;2.28;;;52.80;23.30;;;;;;4994666;28;20109;-57
2022/07/11 14:42:00;;;;;;;11.65;2.00;;;53.00;22.90;;;;;;4991579;28;20029;-55
2022/07/11 14:44:26;;;;;;;7.72;1.88;;;53.00;22.70;;;;;;4995569;28;20038;-55
2022/07/11 14:46:52;;;;;;;4.60;1.33;;;52.70;22.80;;;;;;4995284;28;20084;-52